sensor_id;sensor_type;location;lat;lon;timestamp;P1;durP1;ratioP1;P2;durP2;ratioP2
21758;SDS011;11041;50.854;20.580;2023-09-07T00:01:07;18.33;;;13.68;;
21758;SDS011;11041;50.854;20.580;2023-09-07T00:03:37;19.50;;;12.93;;
21758;SDS011;11041;50.854;20.580;2023-09-07T00:06:06;21.45;;;13.70;;
21758;SDS011;11041;50.854;20.580;2023-09-07T00:08:37;21.20;;;13.15;;
21758;SDS011;11041;50.854;20.580;2023-09-07T00:11:04;19.08;;;12.57;;
21758;SDS011;11041;50.854;20.580;2023-09-07T00:13:35;19.20;;;12.18;;
21758;SDS011;11041;50.854;20.580;2023-09-07T00:16:04;16.63;;;12.23;;
21758;SDS011;11041;50.854;20.580;2023-09-07T00:18:32;16.50;;;12.93;;
21758;SDS011;11041;50.854;20.580;2023-09-07T00:20:59;16.17;;;12.57;;
21758;SDS011;11041;50.854;20.580;2023-09-07T00:23:30;17.67;;;12.00;;
21758;SDS011;11041;50.854;20.580;2023-09-07T00:25:58;15.20;;;11.70;;
21758;SDS011;11041;50.854;20.580;2023-09-07T00:28:27;14.23;;;10.98;;
21758;SDS011;11041;50.854;20.580;2023-09-07T00:30:55;13.40;;;11.02;;
21758;SDS011;11041;50.854;20.580;2023-09-07T00:33:22;20.65;;;11.32;;
21758;SDS011;11041;50.854;20.580;2023-09-07T00:35:49;14.60;;;11.25;;
21758;SDS011;11041;50.854;20.580;2023-09-07T00:38:19;13.50;;;10.52;;
21758;SDS011;11041;50.854;20.580;2023-09-07T00:40:45;12.90;;;10.00;;
21758;SDS011;11041;50.854;20.580;2023-09-07T00:43:13;15.82;;;10.20;;
21758;SDS011;11041;50.854;20.580;2023-09-07T00:45:40;16.05;;;10.50;;
21758;SDS011;11041;50.854;20.580;2023-09-07T00:48:10;15.25;;;10.52;;
21758;SDS011;11041;50.854;20.580;2023-09-07T00:50:43;17.02;;;11.57;;
21758;SDS011;11041;50.854;20.580;2023-09-07T00:53:13;14.75;;;11.10;;
21758;SDS011;11041;50.854;20.580;2023-09-07T00:55:44;15.68;;;11.70;;
21758;SDS011;11041;50.854;20.580;2023-09-07T00:58:14;13.73;;;10.50;;
21758;SDS011;11041;50.854;20.580;2023-09-07T01:00:43;15.30;;;11.05;;
21758;SDS011;11041;50.854;20.580;2023-09-07T01:03:14;12.38;;;10.23;;
21758;SDS011;11041;50.854;20.580;2023-09-07T01:08:32;12.13;;;10.13;;
21758;SDS011;11041;50.854;20.580;2023-09-07T01:11:15;15.65;;;9.82;;
21758;SDS011;11041;50.854;20.580;2023-09-07T01:13:48;10.75;;;9.32;;
21758;SDS011;11041;50.854;20.580;2023-09-07T01:16:18;14.35;;;10.13;;
21758;SDS011;11041;50.854;20.580;2023-09-07T01:18:49;12.85;;;10.48;;
21758;SDS011;11041;50.854;20.580;2023-09-07T01:21:20;13.45;;;10.00;;
21758;SDS011;11041;50.854;20.580;2023-09-07T01:23:53;13.13;;;10.02;;
21758;SDS011;11041;50.854;20.580;2023-09-07T01:26:22;12.10;;;9.57;;
21758;SDS011;11041;50.854;20.580;2023-09-07T01:28:50;11.68;;;9.05;;
21758;SDS011;11041;50.854;20.580;2023-09-07T01:31:17;13.20;;;9.52;;
21758;SDS011;11041;50.854;20.580;2023-09-07T01:33:44;13.20;;;9.60;;
21758;SDS011;11041;50.854;20.580;2023-09-07T01:36:13;10.88;;;9.38;;
21758;SDS011;11041;50.854;20.580;2023-09-07T01:38:42;14.30;;;8.95;;
21758;SDS011;11041;50.854;20.580;2023-09-07T01:41:09;11.15;;;8.88;;
21758;SDS011;11041;50.854;20.580;2023-09-07T01:43:38;14.02;;;9.32;;
21758;SDS011;11041;50.854;20.580;2023-09-07T01:46:09;10.70;;;8.77;;
21758;SDS011;11041;50.854;20.580;2023-09-07T01:48:38;9.57;;;7.80;;
21758;SDS011;11041;50.854;20.580;2023-09-07T01:51:08;11.05;;;8.95;;
21758;SDS011;11041;50.854;20.580;2023-09-07T01:53:47;13.25;;;9.93;;
21758;SDS011;11041;50.854;20.580;2023-09-07T01:56:18;13.48;;;8.70;;
21758;SDS011;11041;50.854;20.580;2023-09-07T01:58:45;13.10;;;9.27;;
21758;SDS011;11041;50.854;20.580;2023-09-07T02:01:22;11.13;;;8.80;;
21758;SDS011;11041;50.854;20.580;2023-09-07T02:04:00;14.23;;;10.38;;
21758;SDS011;11041;50.854;20.580;2023-09-07T02:06:31;11.45;;;9.98;;
21758;SDS011;11041;50.854;20.580;2023-09-07T02:08:58;11.20;;;9.15;;
21758;SDS011;11041;50.854;20.580;2023-09-07T02:11:24;12.77;;;8.88;;
21758;SDS011;11041;50.854;20.580;2023-09-07T02:13:53;11.73;;;8.88;;
21758;SDS011;11041;50.854;20.580;2023-09-07T02:16:22;14.80;;;9.65;;
21758;SDS011;11041;50.854;20.580;2023-09-07T02:18:49;12.38;;;9.20;;
21758;SDS011;11041;50.854;20.580;2023-09-07T02:21:26;13.10;;;9.27;;
21758;SDS011;11041;50.854;20.580;2023-09-07T02:23:54;13.50;;;8.77;;
21758;SDS011;11041;50.854;20.580;2023-09-07T02:26:21;11.88;;;8.82;;
21758;SDS011;11041;50.854;20.580;2023-09-07T02:28:48;11.50;;;9.35;;
21758;SDS011;11041;50.854;20.580;2023-09-07T02:31:17;25.23;;;12.63;;
21758;SDS011;11041;50.854;20.580;2023-09-07T02:33:46;15.30;;;10.73;;
21758;SDS011;11041;50.854;20.580;2023-09-07T02:36:15;12.38;;;10.05;;
21758;SDS011;11041;50.854;20.580;2023-09-07T02:38:42;11.85;;;9.38;;
21758;SDS011;11041;50.854;20.580;2023-09-07T02:41:14;11.00;;;9.20;;
21758;SDS011;11041;50.854;20.580;2023-09-07T02:43:43;11.48;;;9.43;;
21758;SDS011;11041;50.854;20.580;2023-09-07T02:46:12;12.38;;;9.43;;
21758;SDS011;11041;50.854;20.580;2023-09-07T02:48:39;11.50;;;9.10;;
21758;SDS011;11041;50.854;20.580;2023-09-07T02:51:05;12.18;;;9.20;;
21758;SDS011;11041;50.854;20.580;2023-09-07T02:53:34;15.00;;;10.20;;
21758;SDS011;11041;50.854;20.580;2023-09-07T02:56:02;10.93;;;9.02;;
21758;SDS011;11041;50.854;20.580;2023-09-07T02:58:30;12.13;;;9.40;;
21758;SDS011;11041;50.854;20.580;2023-09-07T03:00:58;16.02;;;9.65;;
21758;SDS011;11041;50.854;20.580;2023-09-07T03:03:26;11.52;;;9.35;;
21758;SDS011;11041;50.854;20.580;2023-09-07T03:05:57;11.48;;;9.40;;
21758;SDS011;11041;50.854;20.580;2023-09-07T03:08:34;12.50;;;9.82;;
21758;SDS011;11041;50.854;20.580;2023-09-07T03:11:07;13.80;;;9.73;;
21758;SDS011;11041;50.854;20.580;2023-09-07T03:13:39;13.23;;;9.55;;
21758;SDS011;11041;50.854;20.580;2023-09-07T03:16:07;13.40;;;10.13;;
21758;SDS011;11041;50.854;20.580;2023-09-07T03:18:37;14.20;;;10.40;;
21758;SDS011;11041;50.854;20.580;2023-09-07T03:21:06;16.40;;;10.23;;
21758;SDS011;11041;50.854;20.580;2023-09-07T03:23:35;14.55;;;10.63;;
21758;SDS011;11041;50.854;20.580;2023-09-07T03:26:10;14.70;;;10.05;;
21758;SDS011;11041;50.854;20.580;2023-09-07T03:28:38;13.18;;;10.25;;
21758;SDS011;11041;50.854;20.580;2023-09-07T03:31:07;12.93;;;9.45;;
21758;SDS011;11041;50.854;20.580;2023-09-07T03:33:36;11.68;;;9.13;;
21758;SDS011;11041;50.854;20.580;2023-09-07T03:36:06;12.02;;;9.57;;
21758;SDS011;11041;50.854;20.580;2023-09-07T03:38:35;13.35;;;9.77;;
21758;SDS011;11041;50.854;20.580;2023-09-07T03:41:02;13.07;;;9.18;;
21758;SDS011;11041;50.854;20.580;2023-09-07T03:43:30;11.88;;;9.48;;
21758;SDS011;11041;50.854;20.580;2023-09-07T03:45:57;12.30;;;9.35;;
21758;SDS011;11041;50.854;20.580;2023-09-07T03:48:24;12.35;;;10.02;;
21758;SDS011;11041;50.854;20.580;2023-09-07T03:50:51;11.75;;;8.75;;
21758;SDS011;11041;50.854;20.580;2023-09-07T03:53:17;11.82;;;9.50;;
21758;SDS011;11041;50.854;20.580;2023-09-07T03:55:47;12.73;;;9.60;;
21758;SDS011;11041;50.854;20.580;2023-09-07T03:58:16;12.48;;;9.25;;
21758;SDS011;11041;50.854;20.580;2023-09-07T04:00:45;14.48;;;9.35;;
21758;SDS011;11041;50.854;20.580;2023-09-07T04:03:12;11.55;;;9.52;;
21758;SDS011;11041;50.854;20.580;2023-09-07T04:05:38;13.25;;;9.07;;
21758;SDS011;11041;50.854;20.580;2023-09-07T04:08:08;13.85;;;9.70;;
21758;SDS011;11041;50.854;20.580;2023-09-07T04:10:37;11.43;;;9.15;;
21758;SDS011;11041;50.854;20.580;2023-09-07T04:13:04;13.48;;;8.80;;
21758;SDS011;11041;50.854;20.580;2023-09-07T04:15:34;12.30;;;8.75;;
21758;SDS011;11041;50.854;20.580;2023-09-07T04:18:10;11.55;;;8.98;;
21758;SDS011;11041;50.854;20.580;2023-09-07T04:20:42;13.15;;;9.45;;
21758;SDS011;11041;50.854;20.580;2023-09-07T04:23:11;11.45;;;9.32;;
21758;SDS011;11041;50.854;20.580;2023-09-07T04:25:38;10.90;;;8.95;;
21758;SDS011;11041;50.854;20.580;2023-09-07T04:28:07;9.93;;;8.93;;
21758;SDS011;11041;50.854;20.580;2023-09-07T04:30:40;11.50;;;9.05;;
21758;SDS011;11041;50.854;20.580;2023-09-07T04:33:07;12.88;;;9.40;;
21758;SDS011;11041;50.854;20.580;2023-09-07T04:35:34;11.95;;;9.05;;
21758;SDS011;11041;50.854;20.580;2023-09-07T04:38:04;11.13;;;9.52;;
21758;SDS011;11041;50.854;20.580;2023-09-07T04:40:33;11.80;;;9.27;;
21758;SDS011;11041;50.854;20.580;2023-09-07T04:43:00;14.30;;;9.60;;
21758;SDS011;11041;50.854;20.580;2023-09-07T04:45:26;12.18;;;9.60;;
21758;SDS011;11041;50.854;20.580;2023-09-07T04:47:53;11.80;;;9.93;;
21758;SDS011;11041;50.854;20.580;2023-09-07T04:50:20;26.27;;;13.95;;
21758;SDS011;11041;50.854;20.580;2023-09-07T04:52:47;20.10;;;13.98;;
21758;SDS011;11041;50.854;20.580;2023-09-07T04:55:18;14.90;;;11.02;;
21758;SDS011;11041;50.854;20.580;2023-09-07T04:57:45;21.10;;;13.18;;
21758;SDS011;11041;50.854;20.580;2023-09-07T05:00:12;14.38;;;11.30;;
21758;SDS011;11041;50.854;20.580;2023-09-07T05:02:43;17.50;;;11.43;;
21758;SDS011;11041;50.854;20.580;2023-09-07T05:05:14;15.48;;;10.68;;
21758;SDS011;11041;50.854;20.580;2023-09-07T05:07:41;13.52;;;10.48;;
21758;SDS011;11041;50.854;20.580;2023-09-07T05:10:07;13.15;;;10.70;;
21758;SDS011;11041;50.854;20.580;2023-09-07T05:12:38;16.17;;;10.65;;
21758;SDS011;11041;50.854;20.580;2023-09-07T05:15:06;14.35;;;10.63;;
21758;SDS011;11041;50.854;20.580;2023-09-07T05:17:36;20.33;;;11.05;;
21758;SDS011;11041;50.854;20.580;2023-09-07T05:20:03;17.73;;;11.35;;
21758;SDS011;11041;50.854;20.580;2023-09-07T05:22:31;14.07;;;11.13;;
21758;SDS011;11041;50.854;20.580;2023-09-07T05:25:02;19.48;;;11.20;;
21758;SDS011;11041;50.854;20.580;2023-09-07T05:27:29;15.63;;;11.18;;
21758;SDS011;11041;50.854;20.580;2023-09-07T05:29:56;17.73;;;11.98;;
21758;SDS011;11041;50.854;20.580;2023-09-07T05:32:22;15.90;;;11.05;;
21758;SDS011;11041;50.854;20.580;2023-09-07T05:34:49;16.67;;;11.80;;
21758;SDS011;11041;50.854;20.580;2023-09-07T05:37:17;18.70;;;11.93;;
21758;SDS011;11041;50.854;20.580;2023-09-07T05:39:43;17.30;;;11.90;;
21758;SDS011;11041;50.854;20.580;2023-09-07T05:42:10;17.67;;;12.10;;
21758;SDS011;11041;50.854;20.580;2023-09-07T05:44:38;16.80;;;12.02;;
21758;SDS011;11041;50.854;20.580;2023-09-07T05:47:04;22.15;;;11.95;;
21758;SDS011;11041;50.854;20.580;2023-09-07T05:49:31;20.08;;;11.60;;
21758;SDS011;11041;50.854;20.580;2023-09-07T05:51:58;15.50;;;11.70;;
21758;SDS011;11041;50.854;20.580;2023-09-07T05:54:24;16.05;;;11.82;;
21758;SDS011;11041;50.854;20.580;2023-09-07T05:56:51;15.30;;;11.18;;
21758;SDS011;11041;50.854;20.580;2023-09-07T05:59:18;19.00;;;12.05;;
21758;SDS011;11041;50.854;20.580;2023-09-07T06:01:45;21.33;;;13.23;;
21758;SDS011;11041;50.854;20.580;2023-09-07T06:04:14;19.75;;;12.73;;
21758;SDS011;11041;50.854;20.580;2023-09-07T06:06:41;19.20;;;11.23;;
21758;SDS011;11041;50.854;20.580;2023-09-07T06:09:07;14.10;;;11.00;;
21758;SDS011;11041;50.854;20.580;2023-09-07T06:11:35;17.45;;;11.70;;
21758;SDS011;11041;50.854;20.580;2023-09-07T06:14:04;16.38;;;11.38;;
21758;SDS011;11041;50.854;20.580;2023-09-07T06:16:32;17.02;;;10.35;;
21758;SDS011;11041;50.854;20.580;2023-09-07T06:19:01;18.40;;;10.90;;
21758;SDS011;11041;50.854;20.580;2023-09-07T06:21:28;13.77;;;10.57;;
21758;SDS011;11041;50.854;20.580;2023-09-07T06:23:56;14.60;;;11.05;;
21758;SDS011;11041;50.854;20.580;2023-09-07T06:26:23;14.27;;;10.50;;
21758;SDS011;11041;50.854;20.580;2023-09-07T06:28:51;13.20;;;10.10;;
21758;SDS011;11041;50.854;20.580;2023-09-07T06:31:20;14.55;;;10.35;;
21758;SDS011;11041;50.854;20.580;2023-09-07T06:33:46;20.67;;;11.23;;
21758;SDS011;11041;50.854;20.580;2023-09-07T06:36:13;21.92;;;10.55;;
21758;SDS011;11041;50.854;20.580;2023-09-07T06:38:41;15.93;;;11.25;;
21758;SDS011;11041;50.854;20.580;2023-09-07T06:41:08;16.60;;;11.63;;
21758;SDS011;11041;50.854;20.580;2023-09-07T06:43:40;16.30;;;11.30;;
21758;SDS011;11041;50.854;20.580;2023-09-07T06:46:08;13.30;;;10.85;;
21758;SDS011;11041;50.854;20.580;2023-09-07T06:48:37;13.38;;;9.48;;
21758;SDS011;11041;50.854;20.580;2023-09-07T06:51:04;13.43;;;9.13;;
21758;SDS011;11041;50.854;20.580;2023-09-07T06:53:35;16.58;;;10.63;;
21758;SDS011;11041;50.854;20.580;2023-09-07T06:56:03;16.42;;;10.15;;
21758;SDS011;11041;50.854;20.580;2023-09-07T06:58:31;16.98;;;10.32;;
21758;SDS011;11041;50.854;20.580;2023-09-07T07:01:01;17.85;;;9.50;;
21758;SDS011;11041;50.854;20.580;2023-09-07T07:03:30;18.13;;;10.18;;
21758;SDS011;11041;50.854;20.580;2023-09-07T07:05:59;14.27;;;10.23;;
21758;SDS011;11041;50.854;20.580;2023-09-07T07:08:26;16.83;;;9.73;;
21758;SDS011;11041;50.854;20.580;2023-09-07T07:10:55;18.88;;;10.65;;
21758;SDS011;11041;50.854;20.580;2023-09-07T07:13:22;18.35;;;10.05;;
21758;SDS011;11041;50.854;20.580;2023-09-07T07:15:54;18.73;;;10.18;;
21758;SDS011;11041;50.854;20.580;2023-09-07T07:18:20;20.85;;;11.15;;
21758;SDS011;11041;50.854;20.580;2023-09-07T07:20:48;23.08;;;10.43;;
21758;SDS011;11041;50.854;20.580;2023-09-07T07:23:18;19.70;;;9.02;;
21758;SDS011;11041;50.854;20.580;2023-09-07T07:25:45;16.83;;;8.60;;
21758;SDS011;11041;50.854;20.580;2023-09-07T07:28:12;13.43;;;7.85;;
21758;SDS011;11041;50.854;20.580;2023-09-07T07:30:39;12.93;;;8.48;;
21758;SDS011;11041;50.854;20.580;2023-09-07T07:33:06;10.35;;;7.85;;
21758;SDS011;11041;50.854;20.580;2023-09-07T07:35:35;12.40;;;7.80;;
21758;SDS011;11041;50.854;20.580;2023-09-07T07:38:02;18.45;;;9.32;;
21758;SDS011;11041;50.854;20.580;2023-09-07T07:40:31;15.30;;;8.35;;
21758;SDS011;11041;50.854;20.580;2023-09-07T07:42:58;13.20;;;8.35;;
21758;SDS011;11041;50.854;20.580;2023-09-07T07:45:25;16.55;;;9.27;;
21758;SDS011;11041;50.854;20.580;2023-09-07T07:47:52;16.27;;;8.93;;
21758;SDS011;11041;50.854;20.580;2023-09-07T07:50:20;11.98;;;8.43;;
21758;SDS011;11041;50.854;20.580;2023-09-07T07:52:46;16.40;;;9.68;;
21758;SDS011;11041;50.854;20.580;2023-09-07T07:55:13;16.77;;;8.93;;
21758;SDS011;11041;50.854;20.580;2023-09-07T07:57:42;13.82;;;9.52;;
21758;SDS011;11041;50.854;20.580;2023-09-07T08:00:08;14.70;;;8.95;;
21758;SDS011;11041;50.854;20.580;2023-09-07T08:02:36;11.27;;;8.45;;
21758;SDS011;11041;50.854;20.580;2023-09-07T08:05:04;9.95;;;8.90;;
21758;SDS011;11041;50.854;20.580;2023-09-07T08:07:32;9.52;;;8.48;;
21758;SDS011;11041;50.854;20.580;2023-09-07T08:10:00;9.85;;;8.27;;
21758;SDS011;11041;50.854;20.580;2023-09-07T08:12:26;10.38;;;7.75;;
21758;SDS011;11041;50.854;20.580;2023-09-07T08:14:53;8.93;;;7.47;;
21758;SDS011;11041;50.854;20.580;2023-09-07T08:17:21;7.80;;;6.93;;
21758;SDS011;11041;50.854;20.580;2023-09-07T08:19:49;12.60;;;7.32;;
21758;SDS011;11041;50.854;20.580;2023-09-07T08:22:20;12.27;;;7.95;;
21758;SDS011;11041;50.854;20.580;2023-09-07T08:24:47;11.98;;;7.40;;
21758;SDS011;11041;50.854;20.580;2023-09-07T08:27:14;9.57;;;7.20;;
21758;SDS011;11041;50.854;20.580;2023-09-07T08:29:44;12.35;;;7.80;;
21758;SDS011;11041;50.854;20.580;2023-09-07T08:32:17;9.05;;;6.82;;
21758;SDS011;11041;50.854;20.580;2023-09-07T08:34:44;10.35;;;7.00;;
21758;SDS011;11041;50.854;20.580;2023-09-07T08:37:10;8.80;;;7.13;;
21758;SDS011;11041;50.854;20.580;2023-09-07T08:39:37;8.15;;;6.60;;
21758;SDS011;11041;50.854;20.580;2023-09-07T08:42:04;8.55;;;6.85;;
21758;SDS011;11041;50.854;20.580;2023-09-07T08:44:34;9.43;;;7.07;;
21758;SDS011;11041;50.854;20.580;2023-09-07T08:47:08;9.98;;;6.70;;
21758;SDS011;11041;50.854;20.580;2023-09-07T08:49:38;8.65;;;6.72;;
21758;SDS011;11041;50.854;20.580;2023-09-07T08:52:07;11.50;;;7.70;;
21758;SDS011;11041;50.854;20.580;2023-09-07T08:54:37;8.98;;;6.93;;
21758;SDS011;11041;50.854;20.580;2023-09-07T08:57:08;7.20;;;6.50;;
21758;SDS011;11041;50.854;20.580;2023-09-07T08:59:36;7.28;;;6.57;;
21758;SDS011;11041;50.854;20.580;2023-09-07T09:02:03;7.95;;;6.78;;
21758;SDS011;11041;50.854;20.580;2023-09-07T09:04:37;9.80;;;7.13;;
21758;SDS011;11041;50.854;20.580;2023-09-07T09:07:04;8.55;;;6.40;;
21758;SDS011;11041;50.854;20.580;2023-09-07T09:09:32;13.05;;;6.18;;
21758;SDS011;11041;50.854;20.580;2023-09-07T09:14:54;9.30;;;5.93;;
21758;SDS011;11041;50.854;20.580;2023-09-07T09:17:24;8.38;;;6.15;;
21758;SDS011;11041;50.854;20.580;2023-09-07T09:19:53;8.20;;;6.00;;
21758;SDS011;11041;50.854;20.580;2023-09-07T09:22:20;8.02;;;6.35;;
21758;SDS011;11041;50.854;20.580;2023-09-07T09:24:55;7.78;;;5.90;;
21758;SDS011;11041;50.854;20.580;2023-09-07T09:27:21;7.25;;;5.40;;
21758;SDS011;11041;50.854;20.580;2023-09-07T09:29:53;8.23;;;5.72;;
21758;SDS011;11041;50.854;20.580;2023-09-07T09:32:22;15.27;;;6.05;;
21758;SDS011;11041;50.854;20.580;2023-09-07T09:34:52;7.90;;;6.20;;
21758;SDS011;11041;50.854;20.580;2023-09-07T09:37:20;10.02;;;5.75;;
21758;SDS011;11041;50.854;20.580;2023-09-07T09:39:50;7.85;;;5.50;;
21758;SDS011;11041;50.854;20.580;2023-09-07T09:42:21;8.90;;;6.03;;
21758;SDS011;11041;50.854;20.580;2023-09-07T09:44:57;6.60;;;6.00;;
21758;SDS011;11041;50.854;20.580;2023-09-07T09:47:29;7.57;;;6.30;;
21758;SDS011;11041;50.854;20.580;2023-09-07T09:50:08;7.63;;;6.80;;
21758;SDS011;11041;50.854;20.580;2023-09-07T09:52:37;10.70;;;7.70;;
21758;SDS011;11041;50.854;20.580;2023-09-07T09:55:06;9.30;;;7.35;;
21758;SDS011;11041;50.854;20.580;2023-09-07T09:57:38;8.98;;;7.05;;
21758;SDS011;11041;50.854;20.580;2023-09-07T10:00:05;7.75;;;6.55;;
21758;SDS011;11041;50.854;20.580;2023-09-07T10:02:46;7.57;;;5.80;;
21758;SDS011;11041;50.854;20.580;2023-09-07T10:05:24;8.35;;;6.40;;
21758;SDS011;11041;50.854;20.580;2023-09-07T10:07:52;8.88;;;6.25;;
21758;SDS011;11041;50.854;20.580;2023-09-07T10:10:25;7.30;;;6.38;;
21758;SDS011;11041;50.854;20.580;2023-09-07T10:12:52;7.10;;;5.60;;
21758;SDS011;11041;50.854;20.580;2023-09-07T10:15:20;5.55;;;4.72;;
21758;SDS011;11041;50.854;20.580;2023-09-07T10:18:04;6.00;;;4.07;;
21758;SDS011;11041;50.854;20.580;2023-09-07T10:20:54;5.13;;;3.90;;
21758;SDS011;11041;50.854;20.580;2023-09-07T10:23:34;5.15;;;3.63;;
21758;SDS011;11041;50.854;20.580;2023-09-07T10:26:03;8.60;;;3.60;;
21758;SDS011;11041;50.854;20.580;2023-09-07T10:28:35;6.47;;;3.83;;
21758;SDS011;11041;50.854;20.580;2023-09-07T10:31:03;8.50;;;3.67;;
21758;SDS011;11041;50.854;20.580;2023-09-07T10:33:41;11.25;;;4.50;;
21758;SDS011;11041;50.854;20.580;2023-09-07T10:36:08;10.65;;;3.90;;
21758;SDS011;11041;50.854;20.580;2023-09-07T10:38:49;27.90;;;5.18;;
21758;SDS011;11041;50.854;20.580;2023-09-07T10:41:20;9.90;;;3.90;;
21758;SDS011;11041;50.854;20.580;2023-09-07T10:43:51;6.18;;;3.92;;
21758;SDS011;11041;50.854;20.580;2023-09-07T10:46:21;8.38;;;3.67;;
21758;SDS011;11041;50.854;20.580;2023-09-07T10:48:52;9.95;;;3.50;;
21758;SDS011;11041;50.854;20.580;2023-09-07T10:51:19;8.13;;;3.85;;
21758;SDS011;11041;50.854;20.580;2023-09-07T10:53:47;4.20;;;3.58;;
21758;SDS011;11041;50.854;20.580;2023-09-07T10:56:14;4.15;;;3.25;;
21758;SDS011;11041;50.854;20.580;2023-09-07T10:58:41;5.15;;;3.15;;
21758;SDS011;11041;50.854;20.580;2023-09-07T11:01:09;4.90;;;3.35;;
21758;SDS011;11041;50.854;20.580;2023-09-07T11:03:36;6.13;;;3.53;;
21758;SDS011;11041;50.854;20.580;2023-09-07T11:06:16;3.30;;;3.00;;
21758;SDS011;11041;50.854;20.580;2023-09-07T11:08:46;8.25;;;3.80;;
21758;SDS011;11041;50.854;20.580;2023-09-07T11:11:13;8.88;;;4.43;;
21758;SDS011;11041;50.854;20.580;2023-09-07T11:13:41;4.80;;;3.28;;
21758;SDS011;11041;50.854;20.580;2023-09-07T11:16:09;5.82;;;3.47;;
21758;SDS011;11041;50.854;20.580;2023-09-07T11:18:35;8.07;;;3.67;;
21758;SDS011;11041;50.854;20.580;2023-09-07T11:21:02;5.70;;;3.20;;
21758;SDS011;11041;50.854;20.580;2023-09-07T11:23:31;7.82;;;3.65;;
21758;SDS011;11041;50.854;20.580;2023-09-07T11:26:09;4.38;;;3.40;;
21758;SDS011;11041;50.854;20.580;2023-09-07T11:28:37;7.30;;;3.10;;
21758;SDS011;11041;50.854;20.580;2023-09-07T11:31:04;4.70;;;2.90;;
21758;SDS011;11041;50.854;20.580;2023-09-07T11:33:33;5.45;;;3.15;;
21758;SDS011;11041;50.854;20.580;2023-09-07T11:36:00;5.03;;;3.35;;
21758;SDS011;11041;50.854;20.580;2023-09-07T11:38:29;4.18;;;3.17;;
21758;SDS011;11041;50.854;20.580;2023-09-07T11:41:02;9.32;;;3.60;;
21758;SDS011;11041;50.854;20.580;2023-09-07T11:43:29;9.05;;;3.40;;
21758;SDS011;11041;50.854;20.580;2023-09-07T11:45:57;9.00;;;3.58;;
21758;SDS011;11041;50.854;20.580;2023-09-07T11:48:23;5.00;;;3.55;;
21758;SDS011;11041;50.854;20.580;2023-09-07T11:50:50;8.57;;;3.60;;
21758;SDS011;11041;50.854;20.580;2023-09-07T11:53:17;5.72;;;3.38;;
21758;SDS011;11041;50.854;20.580;2023-09-07T11:55:44;8.65;;;4.43;;
21758;SDS011;11041;50.854;20.580;2023-09-07T11:58:11;4.40;;;3.88;;
21758;SDS011;11041;50.854;20.580;2023-09-07T12:00:38;5.85;;;3.65;;
21758;SDS011;11041;50.854;20.580;2023-09-07T12:03:08;5.82;;;3.70;;
21758;SDS011;11041;50.854;20.580;2023-09-07T12:05:35;4.63;;;4.07;;
21758;SDS011;11041;50.854;20.580;2023-09-07T12:08:03;5.25;;;3.78;;
21758;SDS011;11041;50.854;20.580;2023-09-07T12:10:31;12.32;;;3.90;;
21758;SDS011;11041;50.854;20.580;2023-09-07T12:12:59;8.18;;;3.78;;
21758;SDS011;11041;50.854;20.580;2023-09-07T12:15:25;7.93;;;3.90;;
21758;SDS011;11041;50.854;20.580;2023-09-07T12:17:52;14.32;;;4.30;;
21758;SDS011;11041;50.854;20.580;2023-09-07T12:20:20;8.98;;;3.90;;
21758;SDS011;11041;50.854;20.580;2023-09-07T12:22:46;4.20;;;3.60;;
21758;SDS011;11041;50.854;20.580;2023-09-07T12:25:15;6.13;;;3.53;;
21758;SDS011;11041;50.854;20.580;2023-09-07T12:27:42;5.70;;;3.72;;
21758;SDS011;11041;50.854;20.580;2023-09-07T12:30:11;3.90;;;3.20;;
21758;SDS011;11041;50.854;20.580;2023-09-07T12:32:39;14.95;;;4.22;;
21758;SDS011;11041;50.854;20.580;2023-09-07T12:35:07;7.60;;;4.00;;
21758;SDS011;11041;50.854;20.580;2023-09-07T12:37:37;7.13;;;3.95;;
21758;SDS011;11041;50.854;20.580;2023-09-07T12:40:05;7.47;;;4.10;;
21758;SDS011;11041;50.854;20.580;2023-09-07T12:42:44;5.07;;;3.90;;
21758;SDS011;11041;50.854;20.580;2023-09-07T12:45:12;11.95;;;4.25;;
21758;SDS011;11041;50.854;20.580;2023-09-07T12:47:40;9.27;;;4.00;;
21758;SDS011;11041;50.854;20.580;2023-09-07T12:50:07;6.45;;;4.30;;
21758;SDS011;11041;50.854;20.580;2023-09-07T12:52:34;6.10;;;4.10;;
21758;SDS011;11041;50.854;20.580;2023-09-07T12:55:03;6.35;;;3.78;;
21758;SDS011;11041;50.854;20.580;2023-09-07T12:57:31;4.32;;;3.80;;
21758;SDS011;11041;50.854;20.580;2023-09-07T12:59:58;8.05;;;4.45;;
21758;SDS011;11041;50.854;20.580;2023-09-07T13:02:25;7.45;;;4.18;;
21758;SDS011;11041;50.854;20.580;2023-09-07T13:04:53;5.70;;;3.53;;
21758;SDS011;11041;50.854;20.580;2023-09-07T13:07:23;4.30;;;3.58;;
21758;SDS011;11041;50.854;20.580;2023-09-07T13:09:50;5.22;;;3.30;;
21758;SDS011;11041;50.854;20.580;2023-09-07T13:12:16;6.35;;;3.65;;
21758;SDS011;11041;50.854;20.580;2023-09-07T13:14:43;3.80;;;3.42;;
21758;SDS011;11041;50.854;20.580;2023-09-07T13:17:12;7.57;;;3.17;;
21758;SDS011;11041;50.854;20.580;2023-09-07T13:19:42;8.30;;;3.50;;
21758;SDS011;11041;50.854;20.580;2023-09-07T13:22:09;5.20;;;3.03;;
21758;SDS011;11041;50.854;20.580;2023-09-07T13:24:36;9.45;;;3.53;;
21758;SDS011;11041;50.854;20.580;2023-09-07T13:27:03;6.40;;;3.47;;
21758;SDS011;11041;50.854;20.580;2023-09-07T13:29:31;11.57;;;4.00;;
21758;SDS011;11041;50.854;20.580;2023-09-07T13:31:58;5.70;;;3.30;;
21758;SDS011;11041;50.854;20.580;2023-09-07T13:34:25;5.82;;;3.10;;
21758;SDS011;11041;50.854;20.580;2023-09-07T13:36:52;9.50;;;3.92;;
21758;SDS011;11041;50.854;20.580;2023-09-07T13:39:19;9.13;;;4.70;;
21758;SDS011;11041;50.854;20.580;2023-09-07T13:41:47;8.57;;;3.33;;
21758;SDS011;11041;50.854;20.580;2023-09-07T13:44:14;12.40;;;3.70;;
21758;SDS011;11041;50.854;20.580;2023-09-07T13:46:42;11.38;;;3.97;;
21758;SDS011;11041;50.854;20.580;2023-09-07T13:49:10;4.13;;;3.33;;
21758;SDS011;11041;50.854;20.580;2023-09-07T13:51:39;6.85;;;3.67;;
21758;SDS011;11041;50.854;20.580;2023-09-07T13:54:10;5.63;;;3.28;;
21758;SDS011;11041;50.854;20.580;2023-09-07T13:56:37;7.40;;;3.30;;
21758;SDS011;11041;50.854;20.580;2023-09-07T13:59:04;8.57;;;3.47;;
21758;SDS011;11041;50.854;20.580;2023-09-07T14:01:31;6.55;;;3.70;;
21758;SDS011;11041;50.854;20.580;2023-09-07T14:03:58;5.07;;;3.10;;
21758;SDS011;11041;50.854;20.580;2023-09-07T14:06:25;4.63;;;3.08;;
21758;SDS011;11041;50.854;20.580;2023-09-07T14:08:52;5.18;;;3.50;;
21758;SDS011;11041;50.854;20.580;2023-09-07T14:11:18;11.63;;;3.50;;
21758;SDS011;11041;50.854;20.580;2023-09-07T14:13:47;5.60;;;3.20;;
21758;SDS011;11041;50.854;20.580;2023-09-07T14:16:17;5.47;;;3.53;;
21758;SDS011;11041;50.854;20.580;2023-09-07T14:18:48;6.13;;;3.53;;
21758;SDS011;11041;50.854;20.580;2023-09-07T14:21:15;5.47;;;3.47;;
21758;SDS011;11041;50.854;20.580;2023-09-07T14:23:44;4.20;;;3.33;;
21758;SDS011;11041;50.854;20.580;2023-09-07T14:26:11;4.25;;;3.17;;
21758;SDS011;11041;50.854;20.580;2023-09-07T14:28:41;7.18;;;3.38;;
21758;SDS011;11041;50.854;20.580;2023-09-07T14:31:07;7.57;;;3.17;;
21758;SDS011;11041;50.854;20.580;2023-09-07T14:33:35;4.80;;;3.20;;
21758;SDS011;11041;50.854;20.580;2023-09-07T14:36:05;5.22;;;3.08;;
21758;SDS011;11041;50.854;20.580;2023-09-07T14:38:34;5.90;;;3.03;;